sensor_id;sensor_type;location;lat;lon;timestamp;P1;durP1;ratioP1;P2;durP2;ratioP2
61013;SDS011;46899;47.542;19.082;2024-02-21T00:01:23;5.60;;;4.70;;
61013;SDS011;46899;47.542;19.082;2024-02-21T00:04:35;6.57;;;4.20;;
61013;SDS011;46899;47.542;19.082;2024-02-21T00:07:46;6.47;;;3.80;;
61013;SDS011;46899;47.542;19.082;2024-02-21T00:11:02;5.10;;;3.65;;
61013;SDS011;46899;47.542;19.082;2024-02-21T00:14:11;5.60;;;3.80;;
61013;SDS011;46899;47.542;19.082;2024-02-21T00:17:27;4.90;;;3.47;;
61013;SDS011;46899;47.542;19.082;2024-02-21T00:20:42;6.10;;;3.70;;
61013;SDS011;46899;47.542;19.082;2024-02-21T00:23:56;5.60;;;3.67;;
61013;SDS011;46899;47.542;19.082;2024-02-21T00:27:06;5.68;;;3.42;;
61013;SDS011;46899;47.542;19.082;2024-02-21T00:30:20;3.83;;;3.22;;
61013;SDS011;46899;47.542;19.082;2024-02-21T00:33:31;4.35;;;3.40;;
61013;SDS011;46899;47.542;19.082;2024-02-21T00:36:47;3.78;;;2.72;;
61013;SDS011;46899;47.542;19.082;2024-02-21T00:39:57;4.30;;;3.17;;
61013;SDS011;46899;47.542;19.082;2024-02-21T00:43:11;4.90;;;3.10;;
61013;SDS011;46899;47.542;19.082;2024-02-21T00:46:22;4.28;;;3.03;;
61013;SDS011;46899;47.542;19.082;2024-02-21T00:49:33;5.00;;;2.87;;
61013;SDS011;46899;47.542;19.082;2024-02-21T00:52:46;5.40;;;3.00;;
61013;SDS011;46899;47.542;19.082;2024-02-21T00:55:59;5.83;;;2.77;;
61013;SDS011;46899;47.542;19.082;2024-02-21T00:59:11;2.95;;;2.33;;
61013;SDS011;46899;47.542;19.082;2024-02-21T01:02:27;3.40;;;2.20;;
61013;SDS011;46899;47.542;19.082;2024-02-21T01:05:40;4.25;;;2.03;;
61013;SDS011;46899;47.542;19.082;2024-02-21T01:08:53;4.72;;;2.10;;
61013;SDS011;46899;47.542;19.082;2024-02-21T01:12:04;3.65;;;2.08;;
61013;SDS011;46899;47.542;19.082;2024-02-21T01:15:17;3.70;;;2.30;;
61013;SDS011;46899;47.542;19.082;2024-02-21T01:18:30;5.37;;;2.10;;
61013;SDS011;46899;47.542;19.082;2024-02-21T01:21:45;4.95;;;2.30;;
61013;SDS011;46899;47.542;19.082;2024-02-21T01:24:55;3.05;;;2.05;;
61013;SDS011;46899;47.542;19.082;2024-02-21T01:28:09;3.80;;;1.92;;
61013;SDS011;46899;47.542;19.082;2024-02-21T01:31:19;2.58;;;1.80;;
61013;SDS011;46899;47.542;19.082;2024-02-21T01:34:32;3.25;;;1.80;;
61013;SDS011;46899;47.542;19.082;2024-02-21T01:37:41;6.65;;;2.12;;
61013;SDS011;46899;47.542;19.082;2024-02-21T01:40:53;4.47;;;2.22;;
61013;SDS011;46899;47.542;19.082;2024-02-21T01:44:03;4.72;;;2.00;;
61013;SDS011;46899;47.542;19.082;2024-02-21T01:47:12;5.70;;;2.10;;
61013;SDS011;46899;47.542;19.082;2024-02-21T01:50:24;2.37;;;1.90;;
61013;SDS011;46899;47.542;19.082;2024-02-21T01:53:42;3.80;;;2.55;;
61013;SDS011;46899;47.542;19.082;2024-02-21T01:56:55;3.25;;;1.90;;
61013;SDS011;46899;47.542;19.082;2024-02-21T02:00:07;3.85;;;2.03;;
61013;SDS011;46899;47.542;19.082;2024-02-21T02:06:39;3.62;;;2.10;;
61013;SDS011;46899;47.542;19.082;2024-02-21T02:09:51;4.50;;;2.47;;
61013;SDS011;46899;47.542;19.082;2024-02-21T02:13:02;4.22;;;2.30;;
61013;SDS011;46899;47.542;19.082;2024-02-21T02:16:12;4.43;;;2.30;;
61013;SDS011;46899;47.542;19.082;2024-02-21T02:19:23;3.87;;;2.08;;
61013;SDS011;46899;47.542;19.082;2024-02-21T02:22:34;4.82;;;2.30;;
61013;SDS011;46899;47.542;19.082;2024-02-21T02:25:47;4.18;;;2.35;;
61013;SDS011;46899;47.542;19.082;2024-02-21T02:29:02;5.28;;;2.25;;
61013;SDS011;46899;47.542;19.082;2024-02-21T02:32:13;4.32;;;2.45;;
61013;SDS011;46899;47.542;19.082;2024-02-21T02:35:26;4.60;;;2.58;;
61013;SDS011;46899;47.542;19.082;2024-02-21T02:38:35;6.53;;;2.62;;
61013;SDS011;46899;47.542;19.082;2024-02-21T02:41:46;5.28;;;2.70;;
61013;SDS011;46899;47.542;19.082;2024-02-21T02:44:55;6.55;;;2.70;;
61013;SDS011;46899;47.542;19.082;2024-02-21T02:48:06;4.78;;;2.33;;
61013;SDS011;46899;47.542;19.082;2024-02-21T02:51:16;4.60;;;2.42;;
61013;SDS011;46899;47.542;19.082;2024-02-21T02:54:25;3.70;;;2.40;;
61013;SDS011;46899;47.542;19.082;2024-02-21T02:57:36;3.87;;;2.40;;
61013;SDS011;46899;47.542;19.082;2024-02-21T03:00:49;4.85;;;2.72;;
61013;SDS011;46899;47.542;19.082;2024-02-21T03:03:58;5.68;;;3.10;;
61013;SDS011;46899;47.542;19.082;2024-02-21T03:07:09;5.75;;;3.12;;
61013;SDS011;46899;47.542;19.082;2024-02-21T03:10:27;3.97;;;2.55;;
61013;SDS011;46899;47.542;19.082;2024-02-21T03:13:40;7.20;;;3.58;;
61013;SDS011;46899;47.542;19.082;2024-02-21T03:16:57;7.07;;;3.20;;
61013;SDS011;46899;47.542;19.082;2024-02-21T03:20:12;7.15;;;3.20;;
61013;SDS011;46899;47.542;19.082;2024-02-21T03:23:27;8.05;;;3.60;;
61013;SDS011;46899;47.542;19.082;2024-02-21T03:26:39;6.15;;;2.97;;
61013;SDS011;46899;47.542;19.082;2024-02-21T03:29:52;5.40;;;3.30;;
61013;SDS011;46899;47.542;19.082;2024-02-21T03:33:04;5.28;;;3.17;;
61013;SDS011;46899;47.542;19.082;2024-02-21T03:36:14;5.00;;;2.78;;
61013;SDS011;46899;47.542;19.082;2024-02-21T03:39:30;4.40;;;3.08;;
61013;SDS011;46899;47.542;19.082;2024-02-21T03:42:43;5.65;;;2.97;;
61013;SDS011;46899;47.542;19.082;2024-02-21T03:45:52;6.85;;;3.12;;
61013;SDS011;46899;47.542;19.082;2024-02-21T03:49:00;6.18;;;3.50;;
61013;SDS011;46899;47.542;19.082;2024-02-21T03:52:12;5.47;;;3.37;;
61013;SDS011;46899;47.542;19.082;2024-02-21T03:55:19;7.45;;;3.80;;
61013;SDS011;46899;47.542;19.082;2024-02-21T03:58:28;5.35;;;3.28;;
61013;SDS011;46899;47.542;19.082;2024-02-21T04:01:37;6.65;;;3.58;;
61013;SDS011;46899;47.542;19.082;2024-02-21T04:04:45;5.65;;;3.75;;
61013;SDS011;46899;47.542;19.082;2024-02-21T04:07:55;6.72;;;3.95;;
61013;SDS011;46899;47.542;19.082;2024-02-21T04:11:03;4.85;;;3.33;;
61013;SDS011;46899;47.542;19.082;2024-02-21T04:14:12;7.50;;;3.75;;
61013;SDS011;46899;47.542;19.082;2024-02-21T04:17:23;7.03;;;3.70;;
61013;SDS011;46899;47.542;19.082;2024-02-21T04:20:31;9.40;;;3.78;;
61013;SDS011;46899;47.542;19.082;2024-02-21T04:23:43;7.75;;;4.00;;
61013;SDS011;46899;47.542;19.082;2024-02-21T04:26:50;7.85;;;4.20;;
61013;SDS011;46899;47.542;19.082;2024-02-21T04:30:00;7.95;;;3.97;;
61013;SDS011;46899;47.542;19.082;2024-02-21T04:33:08;7.45;;;4.50;;
61013;SDS011;46899;47.542;19.082;2024-02-21T04:36:22;5.75;;;4.32;;
61013;SDS011;46899;47.542;19.082;2024-02-21T04:39:30;9.50;;;4.57;;
61013;SDS011;46899;47.542;19.082;2024-02-21T04:42:40;7.28;;;4.35;;
61013;SDS011;46899;47.542;19.082;2024-02-21T04:45:52;8.77;;;4.43;;
61013;SDS011;46899;47.542;19.082;2024-02-21T04:49:00;7.32;;;4.25;;
61013;SDS011;46899;47.542;19.082;2024-02-21T04:52:12;8.82;;;4.97;;
61013;SDS011;46899;47.542;19.082;2024-02-21T04:55:25;8.90;;;5.18;;
61013;SDS011;46899;47.542;19.082;2024-02-21T04:58:38;8.38;;;5.22;;
61013;SDS011;46899;47.542;19.082;2024-02-21T05:01:50;6.57;;;4.90;;
61013;SDS011;46899;47.542;19.082;2024-02-21T05:04:59;9.40;;;5.25;;
61013;SDS011;46899;47.542;19.082;2024-02-21T05:08:11;10.98;;;5.50;;
61013;SDS011;46899;47.542;19.082;2024-02-21T05:11:21;7.00;;;5.10;;
61013;SDS011;46899;47.542;19.082;2024-02-21T05:14:33;7.37;;;5.28;;
61013;SDS011;46899;47.542;19.082;2024-02-21T05:17:44;13.35;;;5.50;;
61013;SDS011;46899;47.542;19.082;2024-02-21T05:20:51;9.45;;;5.10;;
61013;SDS011;46899;47.542;19.082;2024-02-21T05:23:59;9.18;;;5.03;;
61013;SDS011;46899;47.542;19.082;2024-02-21T05:27:07;7.25;;;4.75;;
61013;SDS011;46899;47.542;19.082;2024-02-21T05:30:17;7.20;;;4.72;;
61013;SDS011;46899;47.542;19.082;2024-02-21T05:33:28;8.02;;;4.93;;
61013;SDS011;46899;47.542;19.082;2024-02-21T05:36:39;6.12;;;4.43;;
61013;SDS011;46899;47.542;19.082;2024-02-21T05:39:50;6.22;;;4.68;;
61013;SDS011;46899;47.542;19.082;2024-02-21T05:42:59;7.25;;;4.53;;
61013;SDS011;46899;47.542;19.082;2024-02-21T05:46:09;8.02;;;5.00;;
61013;SDS011;46899;47.542;19.082;2024-02-21T05:49:21;5.85;;;4.50;;
61013;SDS011;46899;47.542;19.082;2024-02-21T05:52:34;9.45;;;4.55;;
61013;SDS011;46899;47.542;19.082;2024-02-21T05:55:43;8.20;;;4.15;;
61013;SDS011;46899;47.542;19.082;2024-02-21T05:58:54;7.53;;;4.82;;
61013;SDS011;46899;47.542;19.082;2024-02-21T06:02:01;7.68;;;4.57;;
61013;SDS011;46899;47.542;19.082;2024-02-21T06:05:11;7.45;;;4.10;;
61013;SDS011;46899;47.542;19.082;2024-02-21T06:08:21;7.07;;;4.70;;
61013;SDS011;46899;47.542;19.082;2024-02-21T06:11:31;8.30;;;4.20;;
61013;SDS011;46899;47.542;19.082;2024-02-21T06:14:40;7.00;;;4.10;;
61013;SDS011;46899;47.542;19.082;2024-02-21T06:17:46;6.20;;;3.83;;
61013;SDS011;46899;47.542;19.082;2024-02-21T06:20:54;7.43;;;3.85;;
61013;SDS011;46899;47.542;19.082;2024-02-21T06:24:04;8.02;;;4.07;;
61013;SDS011;46899;47.542;19.082;2024-02-21T06:27:16;8.75;;;4.22;;
61013;SDS011;46899;47.542;19.082;2024-02-21T06:30:23;6.60;;;4.05;;
61013;SDS011;46899;47.542;19.082;2024-02-21T06:33:27;7.62;;;4.43;;
61013;SDS011;46899;47.542;19.082;2024-02-21T06:36:35;6.30;;;3.97;;
61013;SDS011;46899;47.542;19.082;2024-02-21T06:39:44;6.10;;;4.03;;
61013;SDS011;46899;47.542;19.082;2024-02-21T06:42:54;5.95;;;4.00;;
61013;SDS011;46899;47.542;19.082;2024-02-21T06:46:06;6.90;;;3.70;;
61013;SDS011;46899;47.542;19.082;2024-02-21T06:49:19;10.60;;;4.57;;
61013;SDS011;46899;47.542;19.082;2024-02-21T06:52:24;9.20;;;4.30;;
61013;SDS011;46899;47.542;19.082;2024-02-21T06:55:34;8.15;;;4.20;;
61013;SDS011;46899;47.542;19.082;2024-02-21T06:58:37;7.95;;;4.03;;
61013;SDS011;46899;47.542;19.082;2024-02-21T07:01:45;6.25;;;3.95;;
61013;SDS011;46899;47.542;19.082;2024-02-21T07:04:59;6.50;;;3.70;;
61013;SDS011;46899;47.542;19.082;2024-02-21T07:08:09;15.68;;;5.50;;
61013;SDS011;46899;47.542;19.082;2024-02-21T07:11:17;6.65;;;4.00;;
61013;SDS011;46899;47.542;19.082;2024-02-21T07:14:32;6.72;;;3.33;;
61013;SDS011;46899;47.542;19.082;2024-02-21T07:17:39;5.62;;;3.17;;
61013;SDS011;46899;47.542;19.082;2024-02-21T07:20:47;7.32;;;3.47;;
61013;SDS011;46899;47.542;19.082;2024-02-21T07:23:51;4.05;;;2.83;;
61013;SDS011;46899;47.542;19.082;2024-02-21T07:27:01;8.32;;;3.47;;
61013;SDS011;46899;47.542;19.082;2024-02-21T07:30:10;6.40;;;3.10;;
61013;SDS011;46899;47.542;19.082;2024-02-21T07:33:21;7.30;;;3.20;;
61013;SDS011;46899;47.542;19.082;2024-02-21T07:36:33;6.57;;;3.53;;
61013;SDS011;46899;47.542;19.082;2024-02-21T07:39:37;6.18;;;3.20;;
61013;SDS011;46899;47.542;19.082;2024-02-21T07:42:43;6.72;;;3.65;;
61013;SDS011;46899;47.542;19.082;2024-02-21T07:45:53;5.70;;;3.05;;
61013;SDS011;46899;47.542;19.082;2024-02-21T07:49:01;8.57;;;3.33;;
61013;SDS011;46899;47.542;19.082;2024-02-21T07:52:08;8.23;;;3.10;;
61013;SDS011;46899;47.542;19.082;2024-02-21T07:55:12;6.25;;;3.20;;
61013;SDS011;46899;47.542;19.082;2024-02-21T07:58:21;6.60;;;3.03;;
61013;SDS011;46899;47.542;19.082;2024-02-21T08:01:29;6.25;;;2.95;;
61013;SDS011;46899;47.542;19.082;2024-02-21T08:04:37;6.87;;;3.10;;
61013;SDS011;46899;47.542;19.082;2024-02-21T08:07:44;7.32;;;2.90;;
61013;SDS011;46899;47.542;19.082;2024-02-21T08:10:48;5.55;;;2.72;;
61013;SDS011;46899;47.542;19.082;2024-02-21T08:13:53;6.03;;;3.08;;
61013;SDS011;46899;47.542;19.082;2024-02-21T08:16:59;11.07;;;3.67;;
61013;SDS011;46899;47.542;19.082;2024-02-21T08:20:07;5.47;;;2.87;;
61013;SDS011;46899;47.542;19.082;2024-02-21T08:23:18;8.40;;;3.87;;
61013;SDS011;46899;47.542;19.082;2024-02-21T08:26:25;9.38;;;3.10;;
61013;SDS011;46899;47.542;19.082;2024-02-21T08:29:35;7.87;;;2.90;;
61013;SDS011;46899;47.542;19.082;2024-02-21T08:32:38;5.87;;;2.80;;
61013;SDS011;46899;47.542;19.082;2024-02-21T08:35:41;7.18;;;3.10;;
61013;SDS011;46899;47.542;19.082;2024-02-21T08:38:49;6.65;;;2.80;;
61013;SDS011;46899;47.542;19.082;2024-02-21T08:41:57;5.50;;;2.83;;
61013;SDS011;46899;47.542;19.082;2024-02-21T08:45:03;6.75;;;2.72;;
61013;SDS011;46899;47.542;19.082;2024-02-21T08:48:13;5.82;;;3.00;;
61013;SDS011;46899;47.542;19.082;2024-02-21T08:51:22;6.72;;;2.80;;
61013;SDS011;46899;47.542;19.082;2024-02-21T08:54:32;5.62;;;2.70;;
61013;SDS011;46899;47.542;19.082;2024-02-21T08:57:40;7.97;;;2.95;;
61013;SDS011;46899;47.542;19.082;2024-02-21T09:00:52;6.87;;;3.17;;
61013;SDS011;46899;47.542;19.082;2024-02-21T09:03:59;6.43;;;2.80;;
61013;SDS011;46899;47.542;19.082;2024-02-21T09:07:06;8.68;;;2.87;;
61013;SDS011;46899;47.542;19.082;2024-02-21T09:10:14;6.97;;;2.90;;
61013;SDS011;46899;47.542;19.082;2024-02-21T09:13:23;8.98;;;2.95;;
61013;SDS011;46899;47.542;19.082;2024-02-21T09:16:27;8.50;;;2.87;;
61013;SDS011;46899;47.542;19.082;2024-02-21T09:19:35;6.07;;;3.10;;
61013;SDS011;46899;47.542;19.082;2024-02-21T09:22:43;7.75;;;2.67;;
61013;SDS011;46899;47.542;19.082;2024-02-21T09:25:49;7.32;;;3.03;;
61013;SDS011;46899;47.542;19.082;2024-02-21T09:28:53;8.52;;;3.10;;
61013;SDS011;46899;47.542;19.082;2024-02-21T09:31:59;7.53;;;3.20;;
61013;SDS011;46899;47.542;19.082;2024-02-21T09:35:07;8.40;;;3.17;;
61013;SDS011;46899;47.542;19.082;2024-02-21T09:38:13;6.60;;;2.95;;
61013;SDS011;46899;47.542;19.082;2024-02-21T09:41:17;8.45;;;2.87;;
61013;SDS011;46899;47.542;19.082;2024-02-21T09:44:31;10.23;;;3.33;;
61013;SDS011;46899;47.542;19.082;2024-02-21T09:47:43;9.48;;;3.03;;
61013;SDS011;46899;47.542;19.082;2024-02-21T09:51:04;10.55;;;2.80;;
61013;SDS011;46899;47.542;19.082;2024-02-21T09:54:13;11.07;;;2.58;;
61013;SDS011;46899;47.542;19.082;2024-02-21T09:57:19;9.00;;;2.92;;
61013;SDS011;46899;47.542;19.082;2024-02-21T10:00:26;12.52;;;3.05;;
61013;SDS011;46899;47.542;19.082;2024-02-21T10:03:31;7.50;;;2.60;;
61013;SDS011;46899;47.542;19.082;2024-02-21T10:06:36;8.60;;;2.95;;
61013;SDS011;46899;47.542;19.082;2024-02-21T10:09:43;7.97;;;3.03;;
61013;SDS011;46899;47.542;19.082;2024-02-21T10:12:51;6.30;;;2.58;;
61013;SDS011;46899;47.542;19.082;2024-02-21T10:16:07;9.48;;;2.83;;
61013;SDS011;46899;47.542;19.082;2024-02-21T10:19:20;8.80;;;2.75;;
61013;SDS011;46899;47.542;19.082;2024-02-21T10:22:25;10.80;;;3.03;;
61013;SDS011;46899;47.542;19.082;2024-02-21T10:25:31;7.30;;;2.80;;
61013;SDS011;46899;47.542;19.082;2024-02-21T10:28:37;7.43;;;3.40;;
61013;SDS011;46899;47.542;19.082;2024-02-21T10:31:45;7.50;;;2.65;;
61013;SDS011;46899;47.542;19.082;2024-02-21T10:35:00;10.15;;;3.35;;
61013;SDS011;46899;47.542;19.082;2024-02-21T10:38:09;10.73;;;3.33;;
61013;SDS011;46899;47.542;19.082;2024-02-21T10:41:17;11.15;;;3.33;;
61013;SDS011;46899;47.542;19.082;2024-02-21T10:44:23;11.15;;;3.42;;
61013;SDS011;46899;47.542;19.082;2024-02-21T10:47:30;10.45;;;3.20;;
61013;SDS011;46899;47.542;19.082;2024-02-21T10:50:57;6.10;;;3.00;;
61013;SDS011;46899;47.542;19.082;2024-02-21T10:57:18;10.90;;;3.50;;
61013;SDS011;46899;47.542;19.082;2024-02-21T11:00:29;11.12;;;3.17;;
61013;SDS011;46899;47.542;19.082;2024-02-21T11:03:34;6.53;;;2.87;;
61013;SDS011;46899;47.542;19.082;2024-02-21T11:06:40;9.07;;;3.17;;
61013;SDS011;46899;47.542;19.082;2024-02-21T11:09:52;12.20;;;3.83;;
61013;SDS011;46899;47.542;19.082;2024-02-21T11:13:07;9.13;;;2.87;;
61013;SDS011;46899;47.542;19.082;2024-02-21T11:16:24;8.77;;;2.97;;
61013;SDS011;46899;47.542;19.082;2024-02-21T11:19:30;8.32;;;3.22;;
61013;SDS011;46899;47.542;19.082;2024-02-21T11:22:42;9.45;;;3.00;;
61013;SDS011;46899;47.542;19.082;2024-02-21T11:25:49;11.57;;;3.42;;
61013;SDS011;46899;47.542;19.082;2024-02-21T11:28:58;10.10;;;3.30;;
61013;SDS011;46899;47.542;19.082;2024-02-21T11:32:05;8.75;;;3.78;;
61013;SDS011;46899;47.542;19.082;2024-02-21T11:35:21;7.40;;;2.85;;
61013;SDS011;46899;47.542;19.082;2024-02-21T11:38:27;9.32;;;4.05;;
61013;SDS011;46899;47.542;19.082;2024-02-21T11:41:34;6.85;;;3.35;;
61013;SDS011;46899;47.542;19.082;2024-02-21T11:44:39;6.22;;;3.10;;
61013;SDS011;46899;47.542;19.082;2024-02-21T11:50:54;7.43;;;2.83;;
61013;SDS011;46899;47.542;19.082;2024-02-21T11:54:00;9.57;;;3.08;;
61013;SDS011;46899;47.542;19.082;2024-02-21T11:57:06;8.15;;;3.20;;
61013;SDS011;46899;47.542;19.082;2024-02-21T12:00:13;7.65;;;3.30;;
61013;SDS011;46899;47.542;19.082;2024-02-21T12:03:20;9.40;;;3.60;;
61013;SDS011;46899;47.542;19.082;2024-02-21T12:06:25;10.60;;;3.10;;
61013;SDS011;46899;47.542;19.082;2024-02-21T12:09:31;8.13;;;3.25;;
61013;SDS011;46899;47.542;19.082;2024-02-21T12:12:36;8.90;;;3.30;;
61013;SDS011;46899;47.542;19.082;2024-02-21T12:15:47;9.10;;;3.37;;
61013;SDS011;46899;47.542;19.082;2024-02-21T12:18:54;11.90;;;3.25;;
61013;SDS011;46899;47.542;19.082;2024-02-21T12:22:03;8.95;;;3.22;;
61013;SDS011;46899;47.542;19.082;2024-02-21T12:25:16;9.80;;;3.37;;
61013;SDS011;46899;47.542;19.082;2024-02-21T12:28:31;8.60;;;3.28;;
61013;SDS011;46899;47.542;19.082;2024-02-21T12:31:40;7.43;;;2.85;;
61013;SDS011;46899;47.542;19.082;2024-02-21T12:34:49;8.20;;;2.95;;
61013;SDS011;46899;47.542;19.082;2024-02-21T12:37:59;5.82;;;2.62;;
61013;SDS011;46899;47.542;19.082;2024-02-21T12:41:06;6.68;;;2.80;;
61013;SDS011;46899;47.542;19.082;2024-02-21T12:44:13;8.15;;;2.90;;
61013;SDS011;46899;47.542;19.082;2024-02-21T12:47:19;8.02;;;3.30;;
61013;SDS011;46899;47.542;19.082;2024-02-21T12:50:28;11.40;;;3.15;;
61013;SDS011;46899;47.542;19.082;2024-02-21T12:53:33;10.57;;;2.90;;
61013;SDS011;46899;47.542;19.082;2024-02-21T12:56:39;11.73;;;3.65;;
61013;SDS011;46899;47.542;19.082;2024-02-21T12:59:46;9.55;;;3.20;;
61013;SDS011;46899;47.542;19.082;2024-02-21T13:02:50;10.55;;;3.00;;
61013;SDS011;46899;47.542;19.082;2024-02-21T13:05:54;10.30;;;3.83;;
61013;SDS011;46899;47.542;19.082;2024-02-21T13:08:58;8.32;;;2.83;;
61013;SDS011;46899;47.542;19.082;2024-02-21T13:12:04;7.62;;;2.62;;
61013;SDS011;46899;47.542;19.082;2024-02-21T13:15:09;8.40;;;2.70;;
61013;SDS011;46899;47.542;19.082;2024-02-21T13:18:16;9.88;;;2.80;;
61013;SDS011;46899;47.542;19.082;2024-02-21T13:21:19;7.53;;;2.62;;
61013;SDS011;46899;47.542;19.082;2024-02-21T13:24:23;6.03;;;2.50;;
61013;SDS011;46899;47.542;19.082;2024-02-21T13:27:27;8.10;;;2.87;;
61013;SDS011;46899;47.542;19.082;2024-02-21T13:30:31;10.18;;;2.85;;
61013;SDS011;46899;47.542;19.082;2024-02-21T13:33:34;9.65;;;3.15;;
61013;SDS011;46899;47.542;19.082;2024-02-21T13:36:40;6.75;;;2.90;;
61013;SDS011;46899;47.542;19.082;2024-02-21T13:39:46;6.95;;;2.60;;
61013;SDS011;46899;47.542;19.082;2024-02-21T13:42:50;5.62;;;2.67;;
61013;SDS011;46899;47.542;19.082;2024-02-21T13:45:56;7.75;;;3.15;;
61013;SDS011;46899;47.542;19.082;2024-02-21T13:49:06;7.35;;;2.30;;
61013;SDS011;46899;47.542;19.082;2024-02-21T13:52:12;7.70;;;2.65;;
61013;SDS011;46899;47.542;19.082;2024-02-21T13:55:18;10.75;;;2.42;;
61013;SDS011;46899;47.542;19.082;2024-02-21T13:58:26;6.95;;;2.35;;
61013;SDS011;46899;47.542;19.082;2024-02-21T14:01:33;7.00;;;2.53;;
61013;SDS011;46899;47.542;19.082;2024-02-21T14:04:38;8.77;;;2.50;;
61013;SDS011;46899;47.542;19.082;2024-02-21T14:10:48;6.18;;;2.42;;
61013;SDS011;46899;47.542;19.082;2024-02-21T14:13:54;7.25;;;2.53;;
61013;SDS011;46899;47.542;19.082;2024-02-21T14:17:02;7.43;;;1.98;;
61013;SDS011;46899;47.542;19.082;2024-02-21T14:20:09;6.47;;;2.42;;
61013;SDS011;46899;47.542;19.082;2024-02-21T14:23:18;8.95;;;2.50;;
61013;SDS011;46899;47.542;19.082;2024-02-21T14:26:23;6.75;;;2.45;;
61013;SDS011;46899;47.542;19.082;2024-02-21T14:29:29;7.22;;;2.22;;
61013;SDS011;46899;47.542;19.082;2024-02-21T14:32:36;5.25;;;2.17;;
61013;SDS011;46899;47.542;19.082;2024-02-21T14:35:43;6.87;;;2.50;;
61013;SDS011;46899;47.542;19.082;2024-02-21T14:38:51;8.43;;;2.47;;
61013;SDS011;46899;47.542;19.082;2024-02-21T14:41:57;6.40;;;2.60;;
61013;SDS011;46899;47.542;19.082;2024-02-21T14:45:04;6.70;;;2.15;;
61013;SDS011;46899;47.542;19.082;2024-02-21T14:48:12;6.78;;;1.92;;
61013;SDS011;46899;47.542;19.082;2024-02-21T14:51:21;7.35;;;2.37;;
61013;SDS011;46899;47.542;19.082;2024-02-21T14:54:24;8.15;;;2.12;;
61013;SDS011;46899;47.542;19.082;2024-02-21T15:00:35;6.72;;;2.03;;
61013;SDS011;46899;47.542;19.082;2024-02-21T15:03:42;6.50;;;1.90;;
61013;SDS011;46899;47.542;19.082;2024-02-21T15:06:50;8.35;;;2.25;;
61013;SDS011;46899;47.542;19.082;2024-02-21T15:09:57;4.85;;;2.08;;
61013;SDS011;46899;47.542;19.082;2024-02-21T15:13:04;5.57;;;2.12;;
61013;SDS011;46899;47.542;19.082;2024-02-21T15:16:14;6.00;;;1.90;;
61013;SDS011;46899;47.542;19.082;2024-02-21T15:19:24;6.68;;;1.87;;
61013;SDS011;46899;47.542;19.082;2024-02-21T15:22:31;4.00;;;2.17;;
61013;SDS011;46899;47.542;19.082;2024-02-21T15:25:41;9.38;;;2.10;;
61013;SDS011;46899;47.542;19.082;2024-02-21T15:28:50;5.87;;;1.85;;
61013;SDS011;46899;47.542;19.082;2024-02-21T15:31:55;9.38;;;2.28;;
61013;SDS011;46899;47.542;19.082;2024-02-21T15:35:05;6.53;;;2.42;;
61013;SDS011;46899;47.542;19.082;2024-02-21T15:38:11;8.55;;;2.25;;
61013;SDS011;46899;47.542;19.082;2024-02-21T15:41:17;8.50;;;2.53;;
61013;SDS011;46899;47.542;19.082;2024-02-21T15:44:28;7.85;;;2.00;;
61013;SDS011;46899;47.542;19.082;2024-02-21T15:47:35;8.90;;;2.10;;
61013;SDS011;46899;47.542;19.082;2024-02-21T15:50:42;5.55;;;2.08;;
61013;SDS011;46899;47.542;19.082;2024-02-21T15:53:46;6.10;;;2.30;;
61013;SDS011;46899;47.542;19.082;2024-02-21T15:56:53;5.22;;;2.20;;
61013;SDS011;46899;47.542;19.082;2024-02-21T16:00:02;7.80;;;2.20;;
61013;SDS011;46899;47.542;19.082;2024-02-21T16:03:14;5.85;;;2.17;;
61013;SDS011;46899;47.542;19.082;2024-02-21T16:12:35;9.15;;;2.10;;
61013;SDS011;46899;47.542;19.082;2024-02-21T16:15:44;6.95;;;2.33;;
61013;SDS011;46899;47.542;19.082;2024-02-21T16:18:53;8.02;;;2.05;;
61013;SDS011;46899;47.542;19.082;2024-02-21T16:22:02;8.13;;;1.98;;
61013;SDS011;46899;47.542;19.082;2024-02-21T16:25:13;7.53;;;2.30;;
61013;SDS011;46899;47.542;19.082;2024-02-21T16:28:20;5.68;;;1.95;;
61013;SDS011;46899;47.542;19.082;2024-02-21T16:31:32;9.05;;;2.40;;
61013;SDS011;46899;47.542;19.082;2024-02-21T16:34:41;7.95;;;2.30;;
61013;SDS011;46899;47.542;19.082;2024-02-21T16:37:45;7.62;;;2.00;;
61013;SDS011;46899;47.542;19.082;2024-02-21T16:40:53;8.02;;;2.47;;
61013;SDS011;46899;47.542;19.082;2024-02-21T16:44:06;4.10;;;2.08;;
61013;SDS011;46899;47.542;19.082;2024-02-21T16:47:17;6.03;;;2.50;;
61013;SDS011;46899;47.542;19.082;2024-02-21T16:50:31;8.52;;;2.50;;
61013;SDS011;46899;47.542;19.082;2024-02-21T16:53:56;8.82;;;2.50;;
61013;SDS011;46899;47.542;19.082;2024-02-21T16:57:08;5.72;;;1.90;;
61013;SDS011;46899;47.542;19.082;2024-02-21T17:00:18;7.57;;;2.50;;
61013;SDS011;46899;47.542;19.082;2024-02-21T17:03:29;6.97;;;2.30;;
61013;SDS011;46899;47.542;19.082;2024-02-21T17:06:41;6.10;;;2.28;;
61013;SDS011;46899;47.542;19.082;2024-02-21T17:09:54;5.90;;;2.50;;
61013;SDS011;46899;47.542;19.082;2024-02-21T17:13:04;9.90;;;3.42;;
61013;SDS011;46899;47.542;19.082;2024-02-21T17:16:14;7.18;;;2.62;;
61013;SDS011;46899;47.542;19.082;2024-02-21T17:19:22;12.37;;;3.87;;
61013;SDS011;46899;47.542;19.082;2024-02-21T17:22:33;9.38;;;2.97;;
61013;SDS011;46899;47.542;19.082;2024-02-21T17:25:46;9.45;;;3.25;;
61013;SDS011;46899;47.542;19.082;2024-02-21T17:28:59;8.48;;;2.97;;
61013;SDS011;46899;47.542;19.082;2024-02-21T17:32:11;7.18;;;2.92;;
61013;SDS011;46899;47.542;19.082;2024-02-21T17:35:24;7.25;;;2.90;;
61013;SDS011;46899;47.542;19.082;2024-02-21T17:38:33;10.30;;;2.90;;
61013;SDS011;46899;47.542;19.082;2024-02-21T17:41:44;7.62;;;3.03;;
61013;SDS011;46899;47.542;19.082;2024-02-21T17:44:54;9.15;;;3.17;;
61013;SDS011;46899;47.542;19.082;2024-02-21T17:48:05;7.53;;;3.17;;
61013;SDS011;46899;47.542;19.082;2024-02-21T17:51:17;11.02;;;2.78;;
61013;SDS011;46899;47.542;19.082;2024-02-21T17:54:29;9.57;;;3.10;;
61013;SDS011;46899;47.542;19.082;2024-02-21T17:57:41;6.20;;;3.10;;
61013;SDS011;46899;47.542;19.082;2024-02-21T18:00:51;9.15;;;2.85;;
61013;SDS011;46899;47.542;19.082;2024-02-21T18:04:01;6.55;;;3.20;;
61013;SDS011;46899;47.542;19.082;2024-02-21T18:07:13;9.40;;;3.35;;
61013;SDS011;46899;47.542;19.082;2024-02-21T18:10:25;8.68;;;3.17;;
61013;SDS011;46899;47.542;19.082;2024-02-21T18:13:35;9.02;;;3.42;;
61013;SDS011;46899;47.542;19.082;2024-02-21T18:16:45;8.75;;;3.62;;
61013;SDS011;46899;47.542;19.082;2024-02-21T18:19:54;6.65;;;3.42;;
61013;SDS011;46899;47.542;19.082;2024-02-21T18:23:02;10.82;;;3.58;;
61013;SDS011;46899;47.542;19.082;2024-02-21T18:26:11;9.10;;;3.50;;
61013;SDS011;46899;47.542;19.082;2024-02-21T18:29:20;7.28;;;3.25;;
61013;SDS011;46899;47.542;19.082;2024-02-21T18:32:44;10.73;;;3.58;;
61013;SDS011;46899;47.542;19.082;2024-02-21T18:35:56;7.85;;;3.80;;
61013;SDS011;46899;47.542;19.082;2024-02-21T18:39:06;7.90;;;3.75;;
61013;SDS011;46899;47.542;19.082;2024-02-21T18:42:18;10.65;;;3.90;;
61013;SDS011;46899;47.542;19.082;2024-02-21T18:45:27;7.65;;;4.05;;
61013;SDS011;46899;47.542;19.082;2024-02-21T18:48:41;10.93;;;4.60;;
61013;SDS011;46899;47.542;19.082;2024-02-21T18:51:55;9.73;;;4.45;;
61013;SDS011;46899;47.542;19.082;2024-02-21T18:55:06;12.65;;;5.03;;
61013;SDS011;46899;47.542;19.082;2024-02-21T18:58:16;14.40;;;6.12;;
61013;SDS011;46899;47.542;19.082;2024-02-21T19:01:29;11.25;;;5.30;;
61013;SDS011;46899;47.542;19.082;2024-02-21T19:04:40;12.85;;;6.25;;